Petersburg, AK

9:15 PM AKDT on September 14, 2014 (GMT -0800)
Wrangell | Change Station
CLOSE
Current Station
Airport
Location: Wrangell,
Elevation: 43 ft
Nearby Weather Stations

Elev 43 ft 56.48 °N, 132.37 °W | Updated 39 minutes ago

Partly Cloudy
Partly Cloudy
54 °F
Feels Like 54 °F
N
0
Wind Variable Wind from North

Today
High -- | Low -- °F
--% Chance of Precip.
Yesterday
High -- | Low -- °F
Precip. -- in
6:22 AM 7:13 PM
Waning Gibbous, 59% visible
Pressure 29.94 in
Visibility 10.0 miles
Clouds Few 8000 ft
Few 12000 ft
Dew Point 46 °F
Humidity 77%
Rainfall 0.00 in
Snow Depth Not available.
UV 0 out of 12
Pollen Not available.
Air Quality Not available.
Flu Activity Not available.
METAR PAWG 150436Z 00000KT 10SM FEW080 FEW120 12/08 A2994 RMK AO1 WEA: NONE (MCQ)

More Conditions Fewer Conditions

Pressure 29.94 in
Visibility 10.0 miles
Clouds Few 8000 ft
Few 12000 ft
Dew Point 46 °F
Humidity 77%
Rainfall 0.00 in
Snow Depth Not available.
UV 0 out of 12
Pollen Not available.
Air Quality Not available.
Flu Activity Not available.
METAR PAWG 150436Z 00000KT 10SM FEW080 FEW120 12/08 A2994 RMK AO1 WEA: NONE (MCQ)

More Conditions Fewer Conditions

10-Day Weather Forecast

Almanac

Astronomy

Sep. 14, 2014 Rise Set
Actual Time 6:22 AM AKDT 7:13 PM AKDT
Civil Twilight 5:43 AM AKDT 7:52 PM AKDT
Nautical Twilight 4:56 AM AKDT 8:38 PM AKDT
Astronomical Twilight 4:05 AM AKDT 9:30 PM AKDT
Moon 10:03 PM AKDT (9/14) 1:43 PM AKDT (9/14)
Length of Visible Light 14h 08m
Length of Day
12h 51m
Tomorrow will be 4m 45s shorter.
Waning Gibbous, 59% of the Moon is Illuminated
Sep 15
Waning Gibbous
Sep 15
Last Quarter
Sep 24
New
Oct 1
First Quarter
Oct 8
Full

Yesterday's Extremes

State Highs State Lows

Community

WunderPhotos

Upload Photos

1,753,411 photos uploaded!

Nearby

Snow Depth

Station Depth Elevation
Upper Tsaina River 0 in 1750 ft
Moraine 0 in 2100 ft
Grandview 0 in 1100 ft
Grouse Creek Divide 0 in 700 ft
Turnagain Pass 1 in 1880 ft

Earthquake Activity

City Distance Mag. Time & Date
No recent earthquake activity has been reported nearby.
Minimum magnitude displayed is 2.5.

Coastal Water Temperatures

Place Temperature
No Stations Reporting

Nearby Weather Stations